Time;durP1;ratioP1;P1;durP2;ratioP2;P2;SDS_P1;SDS_P2;PMS_P1;PMS_P2;Temp;Humidity;BMP_temperature;BMP_pressure;BME280_temperature;BME280_humidity;BME280_pressure;Samples;Min_cycle;Max_cycle;Signal;HPM_P1;HPM_P2
2021/01/08 00:00:05;;;;;;;10.23;9.10;;;4.00;99.90;;;;;;5019344;28;20191;-57
2021/01/08 00:02:31;;;;;;;8.70;7.90;;;4.00;99.90;;;;;;5020412;28;20263;-58
2021/01/08 00:04:56;;;;;;;14.00;10.13;;;3.90;99.90;;;;;;5020531;28;20532;-57
2021/01/08 00:07:22;;;;;;;10.20;8.73;;;4.00;99.90;;;;;;5019064;28;20171;-57
2021/01/08 00:09:47;;;;;;;11.50;9.03;;;3.90;99.90;;;;;;5019228;28;20285;-57
2021/01/08 00:12:13;;;;;;;10.93;8.90;;;3.80;99.90;;;;;;5019559;28;20160;-58
2021/01/08 00:14:38;;;;;;;13.80;10.40;;;3.80;99.90;;;;;;5020483;28;20176;-55
2021/01/08 00:17:04;;;;;;;11.83;9.63;;;3.90;99.90;;;;;;5019639;28;20239;-56
2021/01/08 00:19:30;;;;;;;10.03;8.50;;;3.90;99.90;;;;;;5019866;28;20218;-58
2021/01/08 00:21:55;;;;;;;9.60;8.57;;;3.90;99.90;;;;;;5020261;28;20180;-58
2021/01/08 00:24:21;;;;;;;8.87;7.30;;;3.90;99.90;;;;;;5019854;28;20176;-56
2021/01/08 00:26:48;;;;;;;10.37;9.07;;;3.90;99.90;;;;;;5018783;28;20168;-56
2021/01/08 00:29:15;;;;;;;10.80;8.03;;;3.90;99.90;;;;;;5018522;28;20265;-56
2021/01/08 00:31:42;;;;;;;9.40;7.87;;;4.00;99.90;;;;;;5018678;28;20403;-58
2021/01/08 00:34:09;;;;;;;9.73;8.00;;;3.90;99.90;;;;;;5018561;28;20415;-58
2021/01/08 00:36:35;;;;;;;11.30;9.10;;;4.00;99.90;;;;;;5018786;28;20414;-55
2021/01/08 00:39:02;;;;;;;11.50;8.83;;;4.00;99.90;;;;;;5017140;28;20446;-57
2021/01/08 00:41:35;;;;;;;10.57;8.77;;;4.00;99.90;;;;;;5018411;28;20494;-58
2021/01/08 00:44:01;;;;;;;10.57;9.47;;;4.00;99.90;;;;;;5018775;28;20402;-57
2021/01/08 00:46:31;;;;;;;11.17;8.67;;;4.10;99.90;;;;;;5018718;28;20406;-59
2021/01/08 00:48:57;;;;;;;10.80;8.97;;;3.90;99.90;;;;;;5018194;28;20480;-57
2021/01/08 00:51:24;;;;;;;9.97;8.73;;;3.90;99.90;;;;;;5017292;28;20804;-57
2021/01/08 00:53:49;;;;;;;9.83;8.67;;;3.90;99.90;;;;;;5018788;28;20260;-60
2021/01/08 00:56:21;;;;;;;13.20;9.83;;;3.90;99.90;;;;;;5030331;28;20443;-58
2021/01/08 00:58:47;;;;;;;12.60;10.70;;;4.00;99.90;;;;;;5038443;28;20193;-57
2021/01/08 01:01:14;;;;;;;10.73;8.43;;;3.90;99.90;;;;;;5027008;28;20399;-58
2021/01/08 01:03:40;;;;;;;12.63;9.77;;;3.90;99.90;;;;;;5020141;28;20391;-59
2021/01/08 01:06:06;;;;;;;10.77;9.33;;;4.00;99.90;;;;;;5020390;28;20409;-59
2021/01/08 01:08:32;;;;;;;12.40;10.57;;;4.10;99.90;;;;;;5020047;28;20683;-59
2021/01/08 01:10:57;;;;;;;9.70;8.30;;;4.00;99.90;;;;;;5018602;28;20200;-58
2021/01/08 01:13:23;;;;;;;10.50;8.30;;;3.90;99.90;;;;;;5019028;28;20531;-59
2021/01/08 01:15:49;;;;;;;10.30;8.13;;;3.90;99.90;;;;;;5018568;28;20406;-55
2021/01/08 01:18:14;;;;;;;9.27;7.70;;;3.80;99.90;;;;;;5019315;28;20183;-57
2021/01/08 01:20:41;;;;;;;9.10;7.27;;;3.70;99.90;;;;;;5018999;28;20196;-57
2021/01/08 01:23:06;;;;;;;9.47;8.20;;;3.80;99.90;;;;;;5018911;28;20251;-58
2021/01/08 01:25:32;;;;;;;9.50;7.13;;;3.80;99.90;;;;;;5018858;28;20493;-58
2021/01/08 01:27:58;;;;;;;10.23;8.30;;;3.80;99.90;;;;;;5018885;28;20176;-58
2021/01/08 01:30:23;;;;;;;8.90;7.80;;;3.80;99.90;;;;;;5028796;28;20203;-57
2021/01/08 01:32:49;;;;;;;8.23;7.27;;;3.80;99.90;;;;;;5039718;28;20218;-58
2021/01/08 01:35:15;;;;;;;10.43;7.93;;;3.90;99.90;;;;;;5038173;28;20255;-58
2021/01/08 01:37:40;;;;;;;8.47;7.57;;;3.90;99.90;;;;;;5019723;28;20171;-57
2021/01/08 01:40:06;;;;;;;8.70;7.80;;;3.80;99.90;;;;;;5023775;28;20202;-57
2021/01/08 01:42:32;;;;;;;8.87;7.80;;;3.50;99.90;;;;;;5017760;28;20180;-56
2021/01/08 01:44:58;;;;;;;9.13;7.13;;;3.50;99.90;;;;;;5017551;28;20411;-57
2021/01/08 01:47:24;;;;;;;9.63;7.80;;;3.60;99.90;;;;;;5017009;28;20204;-58
2021/01/08 01:49:50;;;;;;;8.03;6.87;;;3.60;99.90;;;;;;5017839;28;20204;-57
2021/01/08 01:52:16;;;;;;;10.40;8.43;;;3.60;99.90;;;;;;5018678;28;20414;-57
2021/01/08 01:54:43;;;;;;;11.73;8.27;;;3.40;99.90;;;;;;5018850;28;20202;-58
2021/01/08 01:57:08;;;;;;;8.70;7.67;;;3.30;99.90;;;;;;5018150;28;20425;-58
2021/01/08 01:59:34;;;;;;;11.90;8.90;;;3.20;99.90;;;;;;5017825;28;20434;-59
2021/01/08 02:02:03;;;;;;;9.87;8.83;;;3.00;99.90;;;;;;5019352;28;20255;-57
2021/01/08 02:04:30;;;;;;;10.60;8.63;;;3.00;99.90;;;;;;5018929;28;20211;-56
2021/01/08 02:06:56;;;;;;;8.50;7.17;;;2.90;99.90;;;;;;5019073;28;20505;-57
2021/01/08 02:09:23;;;;;;;8.97;7.67;;;3.00;99.90;;;;;;5019127;28;20476;-58
2021/01/08 02:11:53;;;;;;;10.83;8.20;;;2.90;99.90;;;;;;5018728;28;20410;-58
2021/01/08 02:14:30;;;;;;;9.90;8.23;;;2.90;99.90;;;;;;5016978;28;20408;-58
2021/01/08 02:16:58;;;;;;;7.63;6.77;;;2.90;99.90;;;;;;5017924;28;20398;-55
2021/01/08 02:20:02;;;;;;;9.47;7.50;;;2.90;99.90;;;;;;5017898;28;20454;-59
2021/01/08 02:22:43;;;;;;;8.67;7.37;;;3.00;99.90;;;;;;5017379;28;20423;-56
2021/01/08 02:25:22;;;;;;;9.53;7.90;;;3.10;99.90;;;;;;5017181;28;20413;-55
2021/01/08 02:28:24;;;;;;;7.37;6.50;;;3.20;99.90;;;;;;4999847;28;20422;-58
2021/01/08 02:30:51;;;;;;;9.23;7.10;;;3.10;99.90;;;;;;5018614;28;20465;-58
2021/01/08 02:33:18;;;;;;;9.17;6.90;;;3.20;99.90;;;;;;5018938;28;20971;-58
2021/01/08 02:35:47;;;;;;;8.17;7.03;;;3.10;99.90;;;;;;5017885;28;20404;-57
2021/01/08 02:38:16;;;;;;;7.63;6.37;;;3.20;99.90;;;;;;5018384;28;20414;-58
2021/01/08 02:40:45;;;;;;;8.13;5.57;;;3.40;99.90;;;;;;5017533;28;20438;-58
2021/01/08 02:43:12;;;;;;;7.90;6.57;;;3.60;99.90;;;;;;5017739;28;20761;-58
2021/01/08 02:45:39;;;;;;;7.20;6.33;;;3.70;99.90;;;;;;5018503;28;20422;-57
2021/01/08 02:48:05;;;;;;;9.20;6.40;;;3.80;99.90;;;;;;5018213;28;20425;-58
2021/01/08 02:50:30;;;;;;;9.60;6.53;;;3.90;99.90;;;;;;5018393;28;20466;-58
2021/01/08 02:53:03;;;;;;;8.17;6.50;;;4.00;99.90;;;;;;5018686;28;20415;-56
2021/01/08 02:55:31;;;;;;;8.40;6.10;;;4.00;99.90;;;;;;5017773;28;20167;-58
2021/01/08 02:57:59;;;;;;;7.20;5.60;;;3.90;99.90;;;;;;5018487;28;20411;-58
2021/01/08 03:00:31;;;;;;;6.80;6.10;;;4.00;99.90;;;;;;5017672;28;20438;-57
2021/01/08 03:02:59;;;;;;;7.60;5.87;;;3.80;99.90;;;;;;5018904;28;20387;-58
2021/01/08 03:05:28;;;;;;;7.23;5.70;;;3.80;99.90;;;;;;5018412;28;20425;-58
2021/01/08 03:07:55;;;;;;;7.83;6.20;;;3.70;99.90;;;;;;5017917;28;20419;-55
2021/01/08 03:10:21;;;;;;;7.33;6.53;;;3.80;99.90;;;;;;5018159;28;20466;-58
2021/01/08 03:13:00;;;;;;;8.43;6.53;;;3.70;99.90;;;;;;5018815;28;20407;-57
2021/01/08 03:15:26;;;;;;;9.33;7.50;;;3.70;99.90;;;;;;5021539;28;20406;-58
2021/01/08 03:17:52;;;;;;;9.63;7.53;;;3.70;99.90;;;;;;5022025;28;20780;-57
2021/01/08 03:20:17;;;;;;;8.77;7.87;;;3.60;99.90;;;;;;5021326;28;20294;-55
2021/01/08 03:22:43;;;;;;;11.60;7.80;;;3.30;99.90;;;;;;5021852;28;20223;-55
2021/01/08 03:25:09;;;;;;;8.23;6.70;;;3.40;99.90;;;;;;5021415;28;20180;-59
2021/01/08 03:27:35;;;;;;;9.03;7.20;;;3.50;99.90;;;;;;5021580;28;20259;-56
2021/01/08 03:30:00;;;;;;;7.27;6.47;;;3.50;99.90;;;;;;5022486;28;20480;-58
2021/01/08 03:32:26;;;;;;;9.43;7.90;;;3.50;99.90;;;;;;5003882;28;20172;-57
2021/01/08 03:34:52;;;;;;;8.70;7.77;;;3.50;99.90;;;;;;5003862;28;20172;-57
2021/01/08 03:37:17;;;;;;;9.23;6.83;;;3.60;99.90;;;;;;5021439;28;20171;-57
2021/01/08 03:39:43;;;;;;;9.43;7.27;;;3.60;99.90;;;;;;5019994;28;20564;-54
2021/01/08 03:42:08;;;;;;;8.60;6.90;;;3.60;99.90;;;;;;5020196;28;20259;-56
2021/01/08 03:44:34;;;;;;;8.20;6.87;;;3.60;99.90;;;;;;5020344;28;20174;-56
2021/01/08 03:47:00;;;;;;;10.63;7.87;;;3.60;99.90;;;;;;5021664;28;20183;-57
2021/01/08 03:49:25;;;;;;;8.80;7.20;;;3.50;99.90;;;;;;5026342;28;20219;-57
2021/01/08 03:51:51;;;;;;;8.47;7.30;;;3.40;99.90;;;;;;5040162;28;20194;-57
2021/01/08 03:54:17;;;;;;;9.20;7.47;;;3.30;99.90;;;;;;5027819;28;20776;-57
2021/01/08 03:56:42;;;;;;;7.80;6.83;;;3.20;99.90;;;;;;5021765;28;20205;-56
2021/01/08 03:59:08;;;;;;;8.73;7.37;;;3.30;99.90;;;;;;5020149;28;20231;-56
2021/01/08 04:01:33;;;;;;;9.00;7.53;;;3.30;99.90;;;;;;5020039;28;20172;-57
2021/01/08 04:03:59;;;;;;;9.33;7.63;;;3.50;99.90;;;;;;5020160;28;20177;-56
2021/01/08 04:06:25;;;;;;;7.93;7.03;;;3.50;99.90;;;;;;5019529;28;20643;-54
2021/01/08 04:08:50;;;;;;;8.43;6.80;;;3.60;99.90;;;;;;5020140;28;20192;-59
2021/01/08 04:11:16;;;;;;;8.90;7.80;;;3.60;99.90;;;;;;5019235;28;20242;-59
2021/01/08 04:13:41;;;;;;;8.17;6.63;;;3.50;99.90;;;;;;5021405;28;20175;-58
2021/01/08 04:16:07;;;;;;;7.20;6.43;;;3.50;99.90;;;;;;5021239;28;20176;-57
2021/01/08 04:18:32;;;;;;;7.80;6.97;;;3.60;99.90;;;;;;5021764;28;20172;-56
2021/01/08 04:20:58;;;;;;;8.47;7.30;;;3.60;99.90;;;;;;5001847;28;20692;-55
2021/01/08 04:23:24;;;;;;;11.30;7.97;;;3.60;99.90;;;;;;5019405;28;20298;-57
2021/01/08 04:25:49;;;;;;;9.50;7.63;;;3.50;99.90;;;;;;5019432;28;20175;-58
2021/01/08 04:28:15;;;;;;;10.83;7.80;;;3.50;99.90;;;;;;5022376;28;20211;-57
2021/01/08 04:30:41;;;;;;;7.90;7.03;;;3.50;99.90;;;;;;5019721;28;21033;-56
2021/01/08 04:33:06;;;;;;;11.73;8.03;;;3.50;99.90;;;;;;5019622;28;20175;-57
2021/01/08 04:35:32;;;;;;;9.97;7.77;;;3.50;99.90;;;;;;5019378;28;20205;-55
2021/01/08 04:37:57;;;;;;;8.73;7.70;;;3.40;99.90;;;;;;5020811;28;20179;-57
2021/01/08 04:40:23;;;;;;;9.80;7.83;;;3.50;99.90;;;;;;5020454;28;20601;-58
2021/01/08 04:42:48;;;;;;;9.20;7.60;;;3.40;99.90;;;;;;5020445;28;20183;-58
2021/01/08 04:45:15;;;;;;;7.93;7.13;;;3.40;99.90;;;;;;5021372;28;20186;-58
2021/01/08 04:47:41;;;;;;;9.03;7.13;;;3.50;99.90;;;;;;5003240;28;20191;-58
2021/01/08 04:50:07;;;;;;;8.53;6.87;;;3.30;99.90;;;;;;5020696;28;20478;-56
2021/01/08 04:52:33;;;;;;;7.73;6.23;;;3.30;99.90;;;;;;5020242;28;20410;-56
2021/01/08 04:55:00;;;;;;;7.50;6.70;;;3.30;99.90;;;;;;5019298;28;20435;-58
2021/01/08 04:57:27;;;;;;;8.00;6.73;;;3.50;99.90;;;;;;5019880;28;20164;-58
2021/01/08 04:59:53;;;;;;;8.20;7.03;;;3.50;99.90;;;;;;5019711;28;20439;-55
2021/01/08 05:02:19;;;;;;;8.00;6.60;;;3.60;99.90;;;;;;5019776;28;20497;-57
2021/01/08 05:04:45;;;;;;;8.20;6.70;;;3.50;99.90;;;;;;5019916;28;20533;-56
2021/01/08 05:07:10;;;;;;;7.60;6.33;;;3.50;99.90;;;;;;5020352;28;20172;-58
2021/01/08 05:09:36;;;;;;;8.37;7.30;;;3.40;99.90;;;;;;5019465;28;20886;-55
2021/01/08 05:12:02;;;;;;;8.70;7.50;;;3.50;99.90;;;;;;5019619;28;20183;-56
2021/01/08 05:14:27;;;;;;;10.60;7.17;;;3.40;99.90;;;;;;5020340;28;20204;-59
2021/01/08 05:16:56;;;;;;;7.80;6.77;;;3.40;99.90;;;;;;5020924;28;20168;-55
2021/01/08 05:19:25;;;;;;;8.43;6.90;;;3.30;99.90;;;;;;5020665;28;20199;-56
2021/01/08 05:21:53;;;;;;;7.70;6.90;;;3.20;99.90;;;;;;5020983;28;20429;-56
2021/01/08 05:24:21;;;;;;;8.67;7.33;;;3.30;99.90;;;;;;5020080;28;20403;-57
2021/01/08 05:26:47;;;;;;;7.80;6.90;;;3.10;99.90;;;;;;5020868;28;20418;-57
2021/01/08 05:29:12;;;;;;;7.93;7.13;;;3.10;99.90;;;;;;5020902;28;20533;-57
2021/01/08 05:31:39;;;;;;;8.67;7.77;;;3.00;99.90;;;;;;5021499;28;20164;-57
2021/01/08 05:34:05;;;;;;;8.97;7.43;;;3.00;99.90;;;;;;5020291;28;20172;-58
2021/01/08 05:36:30;;;;;;;6.77;6.03;;;3.00;99.90;;;;;;5017814;28;20982;-57
2021/01/08 05:39:00;;;;;;;7.83;6.33;;;3.20;99.90;;;;;;5018148;28;20207;-58
2021/01/08 05:41:28;;;;;;;7.17;6.40;;;3.20;99.90;;;;;;5017817;28;20537;-59
2021/01/08 05:43:55;;;;;;;7.70;6.40;;;3.40;99.90;;;;;;5019623;28;20414;-59
2021/01/08 05:46:31;;;;;;;7.40;6.33;;;3.50;99.90;;;;;;5021354;28;20434;-55
2021/01/08 05:49:07;;;;;;;6.60;5.97;;;3.50;99.90;;;;;;5000102;28;20455;-54
2021/01/08 05:51:39;;;;;;;6.27;5.60;;;3.60;99.90;;;;;;4999732;28;20407;-59
2021/01/08 05:54:06;;;;;;;8.00;6.30;;;3.70;99.90;;;;;;4999345;28;20765;-58
2021/01/08 05:56:35;;;;;;;6.80;6.17;;;3.50;99.90;;;;;;4999459;28;20859;-58
2021/01/08 05:59:04;;;;;;;8.83;7.90;;;3.60;99.90;;;;;;4999018;28;20408;-58
2021/01/08 06:01:30;;;;;;;7.70;6.40;;;3.60;99.90;;;;;;4999805;28;20881;-59
2021/01/08 06:03:56;;;;;;;7.50;6.70;;;3.40;99.90;;;;;;5005610;28;20419;-57
2021/01/08 06:06:24;;;;;;;9.07;6.90;;;3.40;99.90;;;;;;5019571;28;20403;-58
2021/01/08 06:08:51;;;;;;;8.77;7.30;;;3.50;99.90;;;;;;5018789;28;20935;-57
2021/01/08 06:11:37;;;;;;;7.30;6.23;;;3.50;99.90;;;;;;5018890;28;20446;-58
2021/01/08 06:14:06;;;;;;;7.77;6.27;;;3.60;99.90;;;;;;5018517;28;20510;-57
2021/01/08 06:16:39;;;;;;;9.17;6.97;;;3.50;99.90;;;;;;5018706;28;20414;-59
2021/01/08 06:19:05;;;;;;;6.73;6.03;;;3.50;99.90;;;;;;5019539;28;20423;-57
2021/01/08 06:21:36;;;;;;;9.73;6.50;;;3.50;99.90;;;;;;5019365;28;20413;-58
2021/01/08 06:24:02;;;;;;;7.37;6.63;;;3.50;99.90;;;;;;5019181;28;20489;-57
2021/01/08 06:26:31;;;;;;;7.87;6.83;;;3.50;99.90;;;;;;5019000;28;20485;-57
2021/01/08 06:29:03;;;;;;;7.30;6.43;;;3.60;99.90;;;;;;5017193;28;20401;-57
2021/01/08 06:31:53;;;;;;;7.23;5.83;;;3.50;99.90;;;;;;5018142;28;20454;-58
2021/01/08 06:34:27;;;;;;;7.33;6.17;;;3.60;99.90;;;;;;5018331;28;20415;-58
2021/01/08 06:37:10;;;;;;;6.70;6.00;;;3.50;99.90;;;;;;5017806;28;20406;-58
2021/01/08 06:39:44;;;;;;;7.10;5.77;;;3.40;99.90;;;;;;5016483;28;20545;-57
2021/01/08 06:42:17;;;;;;;6.03;4.83;;;3.50;99.90;;;;;;5031627;28;20424;-58
2021/01/08 06:44:44;;;;;;;5.83;5.23;;;3.50;99.90;;;;;;4998012;28;20804;-58
2021/01/08 06:47:15;;;;;;;5.40;4.63;;;3.60;99.90;;;;;;5011527;28;20419;-57
2021/01/08 06:49:47;;;;;;;6.77;5.57;;;3.70;99.90;;;;;;5020597;28;20864;-58
2021/01/08 06:52:16;;;;;;;8.60;5.20;;;3.70;99.90;;;;;;5021370;28;20401;-58
2021/01/08 06:54:43;;;;;;;5.33;4.83;;;3.70;99.90;;;;;;5022188;28;20518;-58
2021/01/08 06:57:17;;;;;;;6.13;5.03;;;3.60;99.90;;;;;;5021899;28;20414;-58
2021/01/08 06:59:51;;;;;;;6.67;5.10;;;3.50;99.90;;;;;;5021596;28;20452;-56
2021/01/08 07:02:21;;;;;;;7.27;4.90;;;3.70;99.90;;;;;;5021488;28;20414;-54
2021/01/08 07:04:47;;;;;;;6.23;5.33;;;3.60;99.90;;;;;;5020855;28;20391;-57
2021/01/08 07:07:19;;;;;;;6.40;5.70;;;3.70;99.90;;;;;;5021565;28;20454;-55
2021/01/08 07:09:46;;;;;;;7.30;5.80;;;3.60;99.90;;;;;;5021329;28;20611;-58
2021/01/08 07:12:13;;;;;;;5.33;4.83;;;3.40;99.90;;;;;;5020875;28;20407;-55
2021/01/08 07:14:39;;;;;;;8.00;6.40;;;3.40;99.90;;;;;;5020739;28;20430;-56
2021/01/08 07:17:09;;;;;;;6.67;6.07;;;3.60;99.90;;;;;;5021190;28;20904;-56
2021/01/08 07:19:39;;;;;;;8.13;6.57;;;3.60;99.90;;;;;;5020715;28;20793;-56
2021/01/08 07:22:05;;;;;;;6.33;5.63;;;3.70;99.90;;;;;;5021279;28;20457;-59
2021/01/08 07:24:36;;;;;;;6.30;5.60;;;3.60;99.90;;;;;;5021807;28;20868;-58
2021/01/08 07:27:18;;;;;;;5.97;5.40;;;3.40;99.90;;;;;;5021120;28;20692;-57
2021/01/08 07:29:54;;;;;;;6.53;5.50;;;3.50;99.90;;;;;;5020580;28;21128;-59
2021/01/08 07:32:39;;;;;;;7.00;6.30;;;3.50;99.90;;;;;;5003305;28;20401;-54
2021/01/08 07:35:14;;;;;;;7.60;6.60;;;3.50;99.90;;;;;;5002820;28;20494;-58
2021/01/08 07:38:05;;;;;;;7.57;6.03;;;3.60;99.90;;;;;;5020976;28;20403;-57
2021/01/08 07:41:00;;;;;;;7.63;6.73;;;3.70;99.90;;;;;;5019725;28;20434;-55
2021/01/08 07:43:33;;;;;;;5.77;5.20;;;3.80;99.90;;;;;;5007168;28;20419;-57
2021/01/08 07:46:00;;;;;;;6.83;6.00;;;3.70;99.90;;;;;;5002327;28;20427;-56
2021/01/08 07:48:38;;;;;;;6.23;5.43;;;3.70;99.90;;;;;;5020829;28;20430;-56
2021/01/08 07:51:13;;;;;;;7.00;6.30;;;3.70;99.90;;;;;;5021208;28;20461;-56
2021/01/08 07:53:45;;;;;;;8.03;6.30;;;3.80;99.90;;;;;;5023301;28;20418;-56
2021/01/08 07:56:16;;;;;;;6.93;6.20;;;3.80;99.90;;;;;;5019705;28;20409;-57
2021/01/08 07:58:47;;;;;;;7.47;6.30;;;3.90;99.90;;;;;;5019681;28;20426;-54
2021/01/08 08:01:15;;;;;;;6.40;5.10;;;3.60;99.90;;;;;;5019764;28;20463;-57
2021/01/08 08:03:41;;;;;;;6.17;5.40;;;3.70;99.90;;;;;;5002810;28;20438;-57
2021/01/08 08:06:08;;;;;;;8.63;6.90;;;3.80;99.90;;;;;;5020335;28;20426;-57
2021/01/08 08:08:41;;;;;;;8.67;6.13;;;3.60;99.90;;;;;;5019747;28;20927;-54
2021/01/08 08:11:19;;;;;;;7.07;5.50;;;3.40;99.90;;;;;;5020787;28;20490;-55
2021/01/08 08:13:45;;;;;;;6.50;5.80;;;3.40;99.90;;;;;;5021618;28;20387;-56
2021/01/08 08:16:11;;;;;;;6.73;5.90;;;3.40;99.90;;;;;;5023812;28;20406;-58
2021/01/08 08:18:53;;;;;;;7.73;6.60;;;3.40;99.90;;;;;;5022590;28;20461;-59
2021/01/08 08:21:19;;;;;;;6.03;5.43;;;3.60;99.90;;;;;;5021683;28;20561;-59
2021/01/08 08:24:03;;;;;;;7.80;5.73;;;3.70;99.90;;;;;;5020680;28;20417;-57
2021/01/08 08:26:31;;;;;;;6.20;5.60;;;3.70;99.90;;;;;;5020400;28;20164;-58
2021/01/08 08:29:08;;;;;;;5.47;4.90;;;3.60;99.90;;;;;;5019426;28;20429;-58
2021/01/08 08:31:38;;;;;;;6.67;5.10;;;3.60;99.90;;;;;;5021310;28;20399;-57
2021/01/08 08:34:05;;;;;;;5.63;5.03;;;3.60;99.90;;;;;;5021878;28;20896;-58
2021/01/08 08:36:31;;;;;;;9.60;5.90;;;3.50;99.90;;;;;;5021004;28;20413;-58
2021/01/08 08:39:00;;;;;;;5.77;4.80;;;3.60;99.90;;;;;;5021598;28;20395;-58
2021/01/08 08:41:27;;;;;;;5.30;4.63;;;3.70;99.90;;;;;;5021280;28;20433;-59
2021/01/08 08:44:03;;;;;;;5.30;4.73;;;3.90;99.90;;;;;;5022087;28;20794;-59
2021/01/08 08:46:51;;;;;;;5.50;4.90;;;3.70;99.90;;;;;;5023224;28;20390;-59
2021/01/08 08:49:34;;;;;;;4.83;4.33;;;3.80;99.90;;;;;;5021709;28;20880;-59
2021/01/08 08:52:00;;;;;;;9.40;7.27;;;4.10;99.90;;;;;;5020537;28;20420;-57
2021/01/08 08:54:26;;;;;;;7.40;6.17;;;3.90;99.90;;;;;;5019414;28;20410;-57
2021/01/08 08:57:02;;;;;;;6.07;4.57;;;3.90;99.90;;;;;;5019825;28;20400;-57
2021/01/08 08:59:46;;;;;;;6.70;5.80;;;3.90;99.90;;;;;;5022433;28;20556;-57
2021/01/08 09:02:30;;;;;;;5.10;4.60;;;3.70;99.90;;;;;;5019489;28;20486;-57
2021/01/08 09:05:00;;;;;;;5.97;5.37;;;3.60;99.90;;;;;;5002675;28;20453;-58
2021/01/08 09:07:40;;;;;;;5.30;4.80;;;3.80;99.90;;;;;;5002050;28;20490;-57
2021/01/08 09:10:16;;;;;;;5.57;4.93;;;3.70;99.90;;;;;;5019821;28;20481;-57
2021/01/08 09:12:53;;;;;;;5.27;4.77;;;3.90;99.90;;;;;;5018023;28;20387;-58
2021/01/08 09:15:32;;;;;;;7.70;5.07;;;3.80;99.90;;;;;;5018417;28;20387;-58
2021/01/08 09:18:19;;;;;;;6.73;4.80;;;3.80;99.90;;;;;;5017289;28;20500;-59
2021/01/08 09:20:58;;;;;;;5.27;4.77;;;3.80;99.90;;;;;;5017601;28;20473;-56
2021/01/08 09:23:27;;;;;;;7.03;5.30;;;3.80;99.90;;;;;;5017099;28;20391;-58
2021/01/08 09:25:53;;;;;;;5.03;4.50;;;3.90;99.90;;;;;;5017517;28;20501;-56
2021/01/08 09:28:19;;;;;;;4.80;4.27;;;3.90;99.90;;;;;;5020268;28;20407;-58
2021/01/08 09:30:51;;;;;;;4.80;4.30;;;3.90;99.90;;;;;;5020111;28;20195;-57
2021/01/08 09:33:17;;;;;;;5.63;4.87;;;3.90;99.90;;;;;;5022327;28;20195;-59
2021/01/08 09:35:46;;;;;;;5.10;4.47;;;3.80;99.90;;;;;;5038967;28;20937;-58
2021/01/08 09:38:14;;;;;;;6.67;4.30;;;3.70;99.90;;;;;;5040187;28;20190;-57
2021/01/08 09:40:40;;;;;;;4.87;4.00;;;3.80;99.90;;;;;;5020862;28;20429;-58
2021/01/08 09:43:17;;;;;;;5.40;4.90;;;3.80;99.90;;;;;;5019721;28;20395;-55
2021/01/08 09:45:42;;;;;;;4.40;3.73;;;3.80;99.90;;;;;;5019181;28;20394;-57
2021/01/08 09:48:22;;;;;;;5.50;5.00;;;4.00;99.90;;;;;;5019272;28;20450;-56
2021/01/08 09:50:59;;;;;;;5.90;4.23;;;4.20;99.90;;;;;;5021725;28;20450;-55
2021/01/08 09:53:25;;;;;;;4.37;3.40;;;4.30;99.90;;;;;;4999796;28;20463;-54
2021/01/08 09:55:50;;;;;;;4.13;3.80;;;4.20;99.90;;;;;;4999996;28;20434;-63
2021/01/08 09:58:16;;;;;;;3.53;3.23;;;4.40;99.90;;;;;;4999795;28;20187;-54
2021/01/08 10:00:42;;;;;;;4.23;3.27;;;4.20;99.90;;;;;;4999950;28;20200;-57
2021/01/08 10:03:19;;;;;;;6.77;3.80;;;4.20;99.90;;;;;;4982592;28;20176;-55
2021/01/08 10:05:44;;;;;;;3.80;3.50;;;4.00;99.90;;;;;;5000225;28;20186;-55
2021/01/08 10:08:21;;;;;;;4.33;3.63;;;4.10;99.90;;;;;;5000210;28;20412;-58
2021/01/08 10:10:47;;;;;;;3.67;3.37;;;4.50;99.90;;;;;;5000279;28;20235;-56
2021/01/08 10:13:18;;;;;;;4.40;4.00;;;4.50;99.90;;;;;;5000635;28;20404;-57
2021/01/08 10:15:49;;;;;;;3.40;3.10;;;4.40;99.90;;;;;;4983429;28;20167;-58
2021/01/08 10:18:24;;;;;;;4.10;3.70;;;4.50;99.90;;;;;;4990837;28;20431;-58
2021/01/08 10:20:55;;;;;;;3.83;3.53;;;4.70;99.90;;;;;;5020305;28;20442;-55
2021/01/08 10:23:25;;;;;;;5.00;3.90;;;4.60;99.90;;;;;;5023079;28;20946;-58
2021/01/08 10:25:51;;;;;;;4.23;3.33;;;4.60;99.90;;;;;;5024376;28;20433;-56
2021/01/08 10:28:20;;;;;;;4.10;3.70;;;4.50;99.90;;;;;;5023865;28;20501;-57
2021/01/08 10:30:49;;;;;;;5.70;3.60;;;4.60;99.90;;;;;;5024302;28;20456;-58
2021/01/08 10:33:16;;;;;;;5.40;3.80;;;4.60;99.90;;;;;;5023254;28;20403;-57
2021/01/08 10:35:46;;;;;;;5.00;3.90;;;4.40;99.90;;;;;;5022683;28;20409;-57
2021/01/08 10:38:12;;;;;;;3.93;3.57;;;4.40;99.90;;;;;;5022717;28;20429;-58
2021/01/08 10:40:37;;;;;;;4.80;3.80;;;4.30;99.90;;;;;;5022588;28;20509;-58
2021/01/08 10:43:03;;;;;;;5.10;4.53;;;4.20;99.90;;;;;;5020681;28;20179;-57
2021/01/08 10:45:28;;;;;;;5.50;5.00;;;4.40;99.90;;;;;;5022316;28;20172;-54
2021/01/08 10:47:54;;;;;;;4.00;3.60;;;4.50;99.90;;;;;;5023645;28;20517;-59
2021/01/08 10:50:19;;;;;;;4.23;3.83;;;4.40;99.90;;;;;;5024591;28;20199;-58
2021/01/08 10:52:45;;;;;;;3.83;3.53;;;4.50;99.90;;;;;;5023933;28;20254;-59
2021/01/08 10:55:11;;;;;;;4.13;3.73;;;4.60;99.90;;;;;;5022774;28;20284;-58
2021/01/08 10:57:37;;;;;;;5.00;4.50;;;4.70;99.90;;;;;;5021794;28;20215;-58
2021/01/08 11:00:11;;;;;;;5.10;4.47;;;4.90;99.90;;;;;;5021419;28;20433;-58
2021/01/08 11:02:37;;;;;;;5.40;4.90;;;5.10;99.90;;;;;;5022231;28;20746;-58
2021/01/08 11:05:04;;;;;;;4.07;3.50;;;5.30;99.90;;;;;;5022055;28;20478;-59
2021/01/08 11:07:33;;;;;;;4.47;4.03;;;5.30;99.90;;;;;;5022244;28;20583;-58
2021/01/08 11:10:01;;;;;;;4.50;4.07;;;5.20;99.90;;;;;;5021479;28;20520;-58
2021/01/08 11:12:27;;;;;;;4.83;4.33;;;5.10;99.90;;;;;;5021036;28;20411;-57
2021/01/08 11:14:55;;;;;;;4.13;3.63;;;4.90;99.90;;;;;;5019074;28;20410;-60
2021/01/08 11:17:21;;;;;;;5.00;4.13;;;4.80;99.90;;;;;;5017232;28;20414;-61
2021/01/08 11:19:47;;;;;;;5.47;4.23;;;4.90;99.90;;;;;;5016790;28;20510;-61
2021/01/08 11:22:13;;;;;;;5.77;4.17;;;4.80;99.90;;;;;;5016713;28;20402;-61
2021/01/08 11:24:38;;;;;;;4.83;4.43;;;4.70;99.90;;;;;;5016463;28;20183;-61
2021/01/08 11:27:05;;;;;;;5.53;4.13;;;4.60;99.90;;;;;;5015977;28;20180;-61
2021/01/08 11:29:30;;;;;;;5.27;4.77;;;4.60;99.90;;;;;;5015971;28;20657;-60
2021/01/08 11:31:56;;;;;;;4.70;4.30;;;4.50;99.90;;;;;;4998472;28;20407;-60
2021/01/08 11:34:22;;;;;;;5.20;4.50;;;4.40;99.90;;;;;;5015854;28;20665;-60
2021/01/08 11:36:47;;;;;;;4.50;4.00;;;4.50;99.90;;;;;;5016304;28;20176;-60
2021/01/08 11:39:14;;;;;;;5.50;4.20;;;4.50;99.90;;;;;;5016754;28;20190;-60
2021/01/08 11:41:40;;;;;;;4.90;4.40;;;4.50;99.90;;;;;;5016326;28;20172;-63
2021/01/08 11:44:06;;;;;;;3.37;3.07;;;4.50;99.90;;;;;;5016037;28;20414;-61
2021/01/08 11:46:32;;;;;;;4.27;3.73;;;4.70;99.90;;;;;;5016034;28;20710;-60
2021/01/08 11:48:58;;;;;;;5.40;4.40;;;4.70;99.90;;;;;;5016013;28;20578;-61
2021/01/08 11:51:23;;;;;;;5.27;4.67;;;4.90;99.90;;;;;;5018671;28;20492;-61
2021/01/08 11:53:50;;;;;;;5.93;3.90;;;4.80;99.90;;;;;;5015004;28;20540;-61
2021/01/08 11:56:16;;;;;;;4.43;4.03;;;4.70;99.90;;;;;;5016335;28;20645;-59
2021/01/08 11:58:43;;;;;;;4.80;4.30;;;4.60;99.90;;;;;;5015837;28;20445;-60
2021/01/08 12:01:09;;;;;;;5.33;4.00;;;4.70;99.90;;;;;;5016059;28;20502;-59
2021/01/08 12:03:36;;;;;;;5.30;4.80;;;4.60;99.90;;;;;;5016884;28;20394;-59
2021/01/08 12:06:03;;;;;;;7.40;4.57;;;4.60;99.90;;;;;;5016405;28;20403;-59
2021/01/08 12:08:28;;;;;;;4.27;3.73;;;4.60;99.90;;;;;;5016650;28;20414;-59
2021/01/08 12:10:54;;;;;;;4.73;4.20;;;4.40;99.90;;;;;;5016497;28;20451;-62
2021/01/08 12:13:19;;;;;;;5.37;4.60;;;4.50;99.90;;;;;;5016012;28;20190;-60
2021/01/08 12:15:45;;;;;;;5.00;4.53;;;4.70;99.90;;;;;;5016805;28;20165;-61
2021/01/08 12:18:11;;;;;;;9.40;4.97;;;4.70;99.90;;;;;;4998201;28;20180;-61
2021/01/08 12:20:38;;;;;;;5.83;4.90;;;4.50;99.90;;;;;;5015717;28;20958;-61
2021/01/08 12:23:04;;;;;;;5.77;5.13;;;4.40;99.90;;;;;;5015518;28;20501;-59
2021/01/08 12:25:34;;;;;;;5.30;4.10;;;4.50;99.90;;;;;;5016373;28;20428;-60
2021/01/08 12:28:00;;;;;;;4.50;3.97;;;4.40;99.90;;;;;;5030138;28;20414;-60
2021/01/08 12:30:26;;;;;;;6.50;5.17;;;4.20;99.90;;;;;;5035472;28;20567;-60
2021/01/08 12:32:52;;;;;;;6.43;4.73;;;4.20;99.90;;;;;;5021140;28;20446;-60
2021/01/08 12:35:19;;;;;;;5.53;4.97;;;4.20;99.90;;;;;;5016081;28;20191;-60
2021/01/08 12:37:45;;;;;;;5.83;5.10;;;4.30;99.90;;;;;;5015628;28;20403;-61
2021/01/08 12:40:11;;;;;;;6.77;5.50;;;4.40;99.90;;;;;;5014915;28;20434;-61
2021/01/08 12:42:36;;;;;;;5.17;4.57;;;4.30;99.90;;;;;;5014025;28;20252;-59
2021/01/08 12:45:03;;;;;;;7.63;5.17;;;4.20;99.90;;;;;;5015077;28;20445;-61
2021/01/08 12:47:30;;;;;;;5.43;4.77;;;4.00;99.90;;;;;;5014052;28;20176;-61
2021/01/08 12:49:55;;;;;;;5.87;4.73;;;4.00;99.90;;;;;;5014554;28;20467;-60
2021/01/08 12:52:21;;;;;;;6.00;5.40;;;4.00;99.90;;;;;;5014757;28;20407;-60
2021/01/08 12:54:47;;;;;;;7.80;5.27;;;4.00;99.90;;;;;;5014994;28;20226;-59
2021/01/08 12:57:12;;;;;;;5.77;4.90;;;4.30;99.90;;;;;;5014607;28;20712;-60
2021/01/08 12:59:38;;;;;;;8.60;5.40;;;4.20;99.90;;;;;;5014695;28;20556;-60
2021/01/08 13:02:03;;;;;;;6.50;5.03;;;4.30;99.90;;;;;;5014515;28;20168;-61